Time;durP1;ratioP1;P1;durP2;ratioP2;P2;SDS_P1;SDS_P2;PMS_P1;PMS_P2;Temp;Humidity;BMP_temperature;BMP_pressure;BME280_temperature;BME280_humidity;BME280_pressure;Samples;Min_cycle;Max_cycle;Signal;HPM_P1;HPM_P2
2022/05/13 00:01:32;;;;;;;5.13;3.17;;;16.50;68.80;;;;;;4970233;28;20963;-52
2022/05/13 00:04:00;;;;;;;3.50;2.80;;;16.20;68.50;;;;;;4969121;28;20562;-52
2022/05/13 00:06:28;;;;;;;6.93;2.93;;;16.50;68.60;;;;;;4970073;28;20855;-52
2022/05/13 00:08:54;;;;;;;6.67;3.23;;;16.60;69.40;;;;;;4969749;28;20445;-51
2022/05/13 00:11:21;;;;;;;7.83;3.00;;;16.40;69.30;;;;;;4970172;28;20880;-51
2022/05/13 00:13:48;;;;;;;3.10;2.80;;;16.60;69.60;;;;;;4970295;28;20442;-52
2022/05/13 00:16:14;;;;;;;4.73;2.83;;;15.90;69.00;;;;;;4970207;28;20439;-52
2022/05/13 00:18:41;;;;;;;2.80;2.60;;;16.80;70.30;;;;;;4969858;28;20481;-51
2022/05/13 00:21:08;;;;;;;4.70;3.87;;;16.30;69.90;;;;;;4970737;28;20572;-52
2022/05/13 00:23:36;;;;;;;5.30;2.97;;;16.10;70.00;;;;;;4973463;28;20434;-50
2022/05/13 00:26:02;;;;;;;6.07;3.17;;;16.70;70.80;;;;;;4973399;28;20449;-51
2022/05/13 00:28:29;;;;;;;4.23;3.00;;;16.30;70.50;;;;;;4972825;28;21006;-50
2022/05/13 00:30:59;;;;;;;5.50;3.37;;;16.50;71.00;;;;;;4973279;28;20554;-52
2022/05/13 00:33:26;;;;;;;3.90;2.80;;;16.30;71.00;;;;;;4973252;28;20450;-52
2022/05/13 00:35:53;;;;;;;5.50;2.73;;;16.10;70.90;;;;;;4973300;28;20438;-52
2022/05/13 00:38:19;;;;;;;5.23;3.43;;;16.50;71.50;;;;;;4973009;28;20534;-51
2022/05/13 00:40:47;;;;;;;3.70;2.63;;;16.20;71.40;;;;;;4972804;28;20505;-52
2022/05/13 00:43:16;;;;;;;3.40;2.40;;;15.90;71.20;;;;;;4973270;28;20851;-52
2022/05/13 00:45:42;;;;;;;4.90;3.03;;;16.50;72.10;;;;;;4973292;28;20809;-51
2022/05/13 00:48:09;;;;;;;6.90;3.17;;;15.90;71.70;;;;;;4972985;28;20461;-52
2022/05/13 00:50:39;;;;;;;7.43;3.10;;;16.10;72.90;;;;;;4972771;28;20441;-52
2022/05/13 00:53:05;;;;;;;5.50;3.50;;;16.10;72.20;;;;;;4972862;28;20430;-50
2022/05/13 00:55:36;;;;;;;6.47;2.93;;;15.70;72.00;;;;;;4972936;28;20449;-51
2022/05/13 00:58:07;;;;;;;6.80;2.83;;;15.50;72.10;;;;;;4972911;28;20459;-52
2022/05/13 01:00:34;;;;;;;4.50;2.90;;;15.80;72.50;;;;;;4972378;28;20482;-52
2022/05/13 01:03:01;;;;;;;5.80;3.13;;;15.90;72.90;;;;;;4972674;28;20434;-51
2022/05/13 01:05:28;;;;;;;4.53;3.30;;;15.70;72.80;;;;;;4972948;28;20511;-50
2022/05/13 01:07:55;;;;;;;4.93;3.33;;;16.20;73.70;;;;;;4972737;28;20881;-51
2022/05/13 01:10:26;;;;;;;6.17;3.20;;;16.10;73.90;;;;;;4972330;28;20465;-52
2022/05/13 01:12:56;;;;;;;5.63;3.03;;;16.20;74.30;;;;;;4972628;28;20435;-51
2022/05/13 01:15:29;;;;;;;6.23;2.90;;;16.20;74.50;;;;;;4972799;28;20442;-51
2022/05/13 01:20:42;;;;;;;8.40;3.50;;;15.80;74.50;;;;;;4972123;28;20846;-51
2022/05/13 01:23:13;;;;;;;5.53;3.67;;;15.70;74.60;;;;;;4972644;28;20537;-51
2022/05/13 01:25:47;;;;;;;4.50;4.10;;;15.80;75.00;;;;;;4972524;28;20453;-52
2022/05/13 01:28:16;;;;;;;4.13;3.20;;;15.50;74.90;;;;;;4971048;28;20485;-52
2022/05/13 01:30:46;;;;;;;4.67;3.73;;;16.30;75.90;;;;;;4972073;28;20442;-51
2022/05/13 01:33:13;;;;;;;6.50;3.70;;;16.10;76.20;;;;;;4971397;28;20445;-52
2022/05/13 01:35:42;;;;;;;4.53;3.60;;;15.60;75.70;;;;;;4972591;28;20438;-52
2022/05/13 01:38:11;;;;;;;8.77;3.63;;;15.70;76.10;;;;;;4972110;28;20458;-50
2022/05/13 01:40:38;;;;;;;6.13;3.87;;;16.00;76.80;;;;;;4972113;28;20596;-51
2022/05/13 01:43:05;;;;;;;4.30;3.90;;;15.30;76.20;;;;;;4972249;28;20525;-50
2022/05/13 01:45:32;;;;;;;5.20;4.70;;;15.60;76.90;;;;;;4972243;28;20449;-51
2022/05/13 01:47:59;;;;;;;4.30;3.90;;;15.50;77.00;;;;;;4972132;28;20462;-50
2022/05/13 01:50:26;;;;;;;5.53;3.90;;;15.90;77.70;;;;;;4971909;28;20434;-52
2022/05/13 01:52:53;;;;;;;6.80;4.30;;;15.40;77.40;;;;;;4972020;28;20438;-51
2022/05/13 01:55:21;;;;;;;6.57;3.70;;;15.40;77.60;;;;;;4972384;28;20435;-52
2022/05/13 01:57:48;;;;;;;8.10;3.83;;;15.40;77.90;;;;;;4972128;28;20449;-51
2022/05/13 02:00:15;;;;;;;7.50;4.67;;;15.50;78.10;;;;;;4971733;28;20475;-52
2022/05/13 02:05:26;;;;;;;6.93;4.90;;;15.50;78.60;;;;;;4971835;28;20434;-52
2022/05/13 02:07:54;;;;;;;7.63;4.53;;;15.20;78.80;;;;;;4972027;28;20454;-51
2022/05/13 02:10:21;;;;;;;9.43;4.87;;;15.70;79.60;;;;;;4971515;28;20437;-52
2022/05/13 02:12:49;;;;;;;9.93;4.37;;;15.80;79.80;;;;;;4971937;28;20435;-52
2022/05/13 02:15:15;;;;;;;6.03;4.90;;;15.40;79.50;;;;;;4970553;28;20461;-52
2022/05/13 02:17:42;;;;;;;5.20;4.70;;;15.20;79.60;;;;;;4971569;28;20966;-52
2022/05/13 02:20:11;;;;;;;5.80;5.20;;;15.30;79.90;;;;;;4971292;28;20498;-52
2022/05/13 02:22:37;;;;;;;8.30;5.17;;;15.20;80.60;;;;;;4971639;28;20859;-52
2022/05/13 02:25:06;;;;;;;5.67;5.20;;;15.60;80.60;;;;;;4971649;28;20480;-51
2022/05/13 02:27:34;;;;;;;5.67;5.10;;;15.30;80.40;;;;;;4971458;28;20465;-52
2022/05/13 02:30:00;;;;;;;8.43;4.57;;;15.40;81.10;;;;;;4971056;28;20445;-51
2022/05/13 02:32:27;;;;;;;7.50;4.93;;;14.70;80.90;;;;;;4971487;28;20445;-51
2022/05/13 02:34:53;;;;;;;5.47;4.97;;;15.30;81.80;;;;;;4971437;28;20961;-51
2022/05/13 02:37:20;;;;;;;7.10;5.57;;;15.30;82.10;;;;;;4970089;28;20826;-50
2022/05/13 02:39:47;;;;;;;8.03;5.67;;;15.10;82.30;;;;;;4971082;28;20439;-50
2022/05/13 02:42:14;;;;;;;7.20;4.30;;;15.10;82.60;;;;;;4971313;28;20442;-51
2022/05/13 02:44:42;;;;;;;5.50;4.93;;;15.20;82.80;;;;;;4970186;28;20449;-50
2022/05/13 02:47:09;;;;;;;5.77;4.73;;;15.20;83.40;;;;;;4971352;28;20477;-51
2022/05/13 02:49:36;;;;;;;8.83;5.70;;;15.20;83.30;;;;;;4971040;28;20446;-52
2022/05/13 02:52:02;;;;;;;6.10;5.40;;;14.90;83.40;;;;;;4971347;28;20429;-50
2022/05/13 02:54:29;;;;;;;6.90;4.83;;;14.60;83.40;;;;;;4971166;28;20450;-50
2022/05/13 02:56:56;;;;;;;10.10;5.23;;;14.50;83.30;;;;;;4971068;28;20814;-52
2022/05/13 02:59:22;;;;;;;5.60;4.53;;;14.80;83.80;;;;;;4971017;28;20438;-51
2022/05/13 03:01:50;;;;;;;8.37;5.17;;;14.50;83.60;;;;;;4970792;28;20819;-51
2022/05/13 03:04:17;;;;;;;6.83;5.17;;;14.70;84.10;;;;;;4970959;28;20570;-52
2022/05/13 03:06:44;;;;;;;4.80;4.40;;;15.00;84.70;;;;;;4971001;28;20462;-52
2022/05/13 03:09:10;;;;;;;6.53;4.60;;;14.90;84.70;;;;;;4970860;28;20448;-52
2022/05/13 03:11:37;;;;;;;6.97;5.63;;;14.70;84.70;;;;;;4970917;28;20529;-51
2022/05/13 03:14:04;;;;;;;7.50;5.73;;;15.10;86.10;;;;;;4970755;28;20449;-51
2022/05/13 03:16:31;;;;;;;17.80;5.73;;;14.50;84.30;;;;;;4970711;28;20450;-52
2022/05/13 03:18:59;;;;;;;7.30;5.43;;;14.30;84.90;;;;;;4970463;28;20929;-51
2022/05/13 03:21:27;;;;;;;9.53;5.57;;;14.70;85.60;;;;;;4970708;28;20493;-52
2022/05/13 03:23:54;;;;;;;8.10;6.23;;;14.80;86.00;;;;;;4970836;28;20442;-50
2022/05/13 03:26:22;;;;;;;10.93;6.47;;;14.50;85.50;;;;;;4970718;28;20725;-51
2022/05/13 03:28:49;;;;;;;10.40;5.73;;;14.50;85.70;;;;;;4970377;28;20792;-51
2022/05/13 03:31:16;;;;;;;9.20;6.33;;;14.90;86.80;;;;;;4970547;28;20536;-52
2022/05/13 03:33:43;;;;;;;11.13;6.50;;;14.10;86.10;;;;;;4970541;28;20436;-51
2022/05/13 03:36:12;;;;;;;11.43;6.00;;;14.50;86.30;;;;;;4970632;28;20440;-51
2022/05/13 03:38:40;;;;;;;12.30;7.17;;;14.60;87.00;;;;;;4970336;28;20465;-50
2022/05/13 03:41:07;;;;;;;9.73;6.93;;;15.00;88.20;;;;;;4970269;28;20569;-52
2022/05/13 03:43:33;;;;;;;7.13;6.20;;;14.80;87.70;;;;;;4970359;28;20518;-52
2022/05/13 03:46:00;;;;;;;10.70;6.20;;;14.90;88.60;;;;;;4970107;28;20441;-51
2022/05/13 03:48:27;;;;;;;13.03;6.67;;;14.50;87.70;;;;;;4970015;28;20460;-51
2022/05/13 03:50:53;;;;;;;12.33;7.27;;;14.30;88.10;;;;;;4970231;28;20430;-52
2022/05/13 03:53:21;;;;;;;13.20;7.17;;;14.60;88.10;;;;;;4970177;28;20439;-49
2022/05/13 03:55:48;;;;;;;7.77;6.30;;;14.80;88.60;;;;;;4969905;28;20452;-50
2022/05/13 03:58:15;;;;;;;8.80;6.03;;;14.50;88.40;;;;;;4970071;28;20682;-52
2022/05/13 04:00:42;;;;;;;8.33;6.40;;;14.50;89.30;;;;;;4969729;28;20481;-51
2022/05/13 04:03:08;;;;;;;8.83;6.23;;;14.50;89.20;;;;;;4970099;28;20442;-51
2022/05/13 04:11:05;;;;;;;9.47;6.03;;;14.80;89.90;;;;;;4970069;28;20958;-52
2022/05/13 04:16:16;;;;;;;8.67;6.60;;;15.10;89.80;;;;;;4969926;28;20448;-52
2022/05/13 04:18:45;;;;;;;9.67;7.30;;;15.10;88.90;;;;;;4969337;28;20970;-52
2022/05/13 04:21:13;;;;;;;8.93;6.47;;;;;;;;;;4969682;28;20489;-52
2022/05/13 04:23:43;;;;;;;9.60;6.10;;;15.50;88.70;;;;;;4969803;28;20430;-52
2022/05/13 04:26:12;;;;;;;7.43;5.80;;;15.30;88.10;;;;;;4969888;28;20450;-52
2022/05/13 04:28:39;;;;;;;9.20;5.80;;;15.60;88.20;;;;;;5081076;23;20499;-45
2022/05/13 04:31:05;;;;;;;10.30;5.93;;;15.50;88.30;;;;;;5091695;28;20950;-47
2022/05/13 04:33:32;;;;;;;9.77;6.40;;;15.80;88.20;;;;;;5092235;28;20444;-46
2022/05/13 04:35:59;;;;;;;7.37;5.93;;;15.80;87.80;;;;;;5092470;28;20425;-45
2022/05/13 04:38:25;;;;;;;11.70;6.63;;;16.20;88.00;;;;;;5091760;28;20452;-50
2022/05/13 04:40:53;;;;;;;6.27;5.47;;;16.50;87.80;;;;;;5093504;28;20468;-45
2022/05/13 04:43:19;;;;;;;8.97;6.00;;;16.40;87.50;;;;;;5074597;28;20445;-46
2022/05/13 04:45:46;;;;;;;8.30;6.73;;;16.20;86.80;;;;;;5092437;28;20448;-47
2022/05/13 04:48:21;;;;;;;8.17;7.33;;;16.20;87.20;;;;;;5093172;28;20274;-45
2022/05/13 04:50:52;;;;;;;9.10;6.47;;;16.70;86.50;;;;;;5093202;28;20457;-45
2022/05/13 04:53:21;;;;;;;14.73;7.17;;;16.50;85.80;;;;;;5091504;28;20960;-47
2022/05/13 04:55:49;;;;;;;10.20;6.90;;;16.40;85.40;;;;;;5091424;28;20429;-47
2022/05/13 04:58:17;;;;;;;8.93;8.03;;;16.90;85.60;;;;;;5090532;28;21041;-47
2022/05/13 05:00:45;;;;;;;11.67;7.13;;;16.40;84.60;;;;;;5090277;28;20475;-47
2022/05/13 05:03:11;;;;;;;7.13;6.40;;;17.00;84.90;;;;;;5090426;28;20520;-46
2022/05/13 05:05:38;;;;;;;9.30;6.43;;;17.20;84.60;;;;;;5090482;28;20444;-47
2022/05/13 05:08:05;;;;;;;9.13;5.57;;;17.10;84.10;;;;;;5091397;28;20456;-45
2022/05/13 05:10:32;;;;;;;7.10;6.13;;;17.10;83.60;;;;;;5093820;28;20949;-49
2022/05/13 05:12:59;;;;;;;8.43;6.10;;;17.40;83.50;;;;;;5094129;28;20435;-46
2022/05/13 05:15:28;;;;;;;9.17;5.70;;;17.20;82.70;;;;;;5093909;28;20782;-46
2022/05/13 05:17:55;;;;;;;6.87;5.63;;;17.60;82.50;;;;;;5094153;28;20453;-46
2022/05/13 05:20:22;;;;;;;7.97;6.23;;;17.20;81.80;;;;;;5094059;28;20451;-46
2022/05/13 05:22:49;;;;;;;10.00;6.23;;;17.60;82.00;;;;;;5093951;28;20481;-47
2022/05/13 05:25:18;;;;;;;9.33;5.17;;;17.70;81.50;;;;;;5093795;28;20846;-46
2022/05/13 05:27:45;;;;;;;7.53;5.30;;;17.60;80.70;;;;;;5093488;28;20473;-47
2022/05/13 05:30:13;;;;;;;6.80;6.10;;;17.80;80.50;;;;;;5093685;28;20496;-47
2022/05/13 05:32:42;;;;;;;6.87;4.83;;;17.90;80.20;;;;;;5093535;28;20436;-46
2022/05/13 05:35:12;;;;;;;11.47;6.20;;;17.60;79.50;;;;;;5093621;28;20536;-49
2022/05/13 05:37:39;;;;;;;9.77;5.90;;;18.00;79.40;;;;;;5093544;28;20469;-47
2022/05/13 05:40:09;;;;;;;9.43;5.60;;;18.10;78.80;;;;;;5093398;28;20440;-48
2022/05/13 05:42:36;;;;;;;11.60;5.73;;;18.20;78.30;;;;;;5093035;28;20996;-46
2022/05/13 05:45:02;;;;;;;11.47;5.90;;;18.50;78.10;;;;;;5093253;28;20429;-46
2022/05/13 05:47:29;;;;;;;7.83;5.67;;;18.50;77.40;;;;;;5074457;28;20570;-47
2022/05/13 05:49:59;;;;;;;9.53;5.93;;;18.20;76.60;;;;;;5092633;28;20771;-51
2022/05/13 05:52:25;;;;;;;7.40;5.40;;;18.90;76.70;;;;;;5092949;28;20553;-47
2022/05/13 05:57:36;;;;;;;12.80;5.67;;;18.20;74.80;;;;;;5074507;28;20928;-46
2022/05/13 06:00:05;;;;;;;9.77;5.37;;;18.30;74.60;;;;;;5092748;28;20427;-48
2022/05/13 06:02:32;;;;;;;8.57;6.20;;;18.70;74.60;;;;;;5092425;28;20978;-48
2022/05/13 06:05:00;;;;;;;10.90;5.30;;;18.80;74.40;;;;;;5092377;28;20773;-47
2022/05/13 06:07:27;;;;;;;12.20;5.50;;;19.10;73.90;;;;;;5092660;28;20451;-46
2022/05/13 06:09:54;;;;;;;8.20;5.53;;;18.70;73.00;;;;;;5092117;28;20443;-47
2022/05/13 06:12:21;;;;;;;9.10;7.20;;;19.00;72.70;;;;;;5092384;28;20441;-47
2022/05/13 06:14:48;;;;;;;6.60;5.30;;;19.30;72.30;;;;;;5092567;28;20432;-48
2022/05/13 06:17:14;;;;;;;12.33;6.17;;;19.60;71.20;;;;;;5092155;28;20526;-49
2022/05/13 06:19:41;;;;;;;11.13;5.00;;;19.30;71.10;;;;;;5092018;28;20513;-47
2022/05/13 06:22:09;;;;;;;9.97;6.70;;;19.40;69.90;;;;;;5092579;28;20477;-49
2022/05/13 06:24:35;;;;;;;7.03;5.47;;;19.60;70.00;;;;;;5092545;28;20432;-49
2022/05/13 06:27:02;;;;;;;7.53;5.73;;;19.70;68.90;;;;;;5092697;28;20920;-46
2022/05/13 06:29:29;;;;;;;7.07;5.30;;;19.80;69.10;;;;;;5092097;28;20450;-46
2022/05/13 06:31:58;;;;;;;16.23;5.90;;;20.00;69.10;;;;;;5093189;28;20433;-47
2022/05/13 06:34:25;;;;;;;10.60;5.57;;;19.50;68.20;;;;;;5093454;28;20429;-48
2022/05/13 06:36:52;;;;;;;9.63;6.10;;;;;;;;;;5092097;28;20436;-48
2022/05/13 06:39:20;;;;;;;6.37;4.97;;;19.70;67.90;;;;;;5091732;28;20455;-46
2022/05/13 06:41:47;;;;;;;11.30;5.57;;;19.80;68.30;;;;;;5092469;28;20483;-46
2022/05/13 06:44:15;;;;;;;7.50;5.60;;;19.50;67.80;;;;;;5092122;28;20432;-46
2022/05/13 06:46:43;;;;;;;7.13;5.80;;;19.70;68.00;;;;;;5092461;28;20520;-46
2022/05/13 06:49:12;;;;;;;8.80;6.10;;;19.80;67.30;;;;;;5092037;28;20467;-47
2022/05/13 06:51:40;;;;;;;8.10;5.67;;;19.90;67.60;;;;;;5092317;28;20448;-46
2022/05/13 06:54:09;;;;;;;9.03;6.47;;;19.80;68.00;;;;;;5092170;28;20466;-46
2022/05/13 06:56:39;;;;;;;8.33;6.53;;;20.10;66.70;;;;;;5091535;28;20558;-46
2022/05/13 06:59:06;;;;;;;12.53;7.13;;;20.30;66.80;;;;;;5091660;28;20987;-46
2022/05/13 07:01:33;;;;;;;8.17;6.23;;;20.20;67.50;;;;;;5091406;28;20478;-50
2022/05/13 07:04:00;;;;;;;11.00;6.40;;;20.20;66.80;;;;;;5091326;28;20432;-47
2022/05/13 07:06:26;;;;;;;19.17;7.40;;;20.20;66.20;;;;;;5091287;28;20525;-47
2022/05/13 07:08:53;;;;;;;7.93;5.90;;;20.80;65.80;;;;;;5091029;28;20992;-48
2022/05/13 07:11:21;;;;;;;7.50;5.93;;;20.80;66.40;;;;;;5091631;28;20447;-47
2022/05/13 07:13:49;;;;;;;10.10;6.83;;;20.90;66.10;;;;;;5091677;28;20436;-46
2022/05/13 07:16:16;;;;;;;8.97;6.53;;;20.90;64.90;;;;;;5091147;28;20792;-47
2022/05/13 07:18:43;;;;;;;11.70;7.17;;;21.00;64.10;;;;;;5090869;28;20941;-46
2022/05/13 07:21:09;;;;;;;9.87;6.13;;;21.10;64.80;;;;;;5091196;28;20447;-48
2022/05/13 07:23:36;;;;;;;9.97;6.30;;;21.10;64.60;;;;;;5091499;28;20433;-47
2022/05/13 07:26:03;;;;;;;11.03;7.07;;;20.90;63.90;;;;;;5090900;28;20442;-47
2022/05/13 07:28:29;;;;;;;15.13;6.90;;;21.20;63.40;;;;;;5090609;28;20573;-47
2022/05/13 07:31:00;;;;;;;6.60;6.00;;;21.10;63.60;;;;;;5090707;28;20481;-47
2022/05/13 07:33:29;;;;;;;11.90;6.47;;;21.20;63.50;;;;;;5092161;28;20947;-48
2022/05/13 07:35:56;;;;;;;10.97;6.70;;;21.10;63.50;;;;;;5091222;28;20443;-50
2022/05/13 07:38:23;;;;;;;11.33;7.00;;;21.00;63.30;;;;;;5090759;28;20943;-52
2022/05/13 07:43:35;;;;;;;8.03;6.70;;;20.70;64.10;;;;;;5090898;28;20477;-47
2022/05/13 07:46:03;;;;;;;19.33;8.37;;;20.60;63.90;;;;;;5090730;28;20452;-49
2022/05/13 07:48:30;;;;;;;12.00;7.50;;;20.90;62.80;;;;;;5090365;28;20570;-48
2022/05/13 07:50:56;;;;;;;9.70;6.83;;;21.20;64.30;;;;;;5090786;28;20435;-48
2022/05/13 07:53:23;;;;;;;11.13;7.40;;;20.90;63.40;;;;;;5072233;28;20453;-46
2022/05/13 07:55:50;;;;;;;11.50;7.40;;;21.00;62.20;;;;;;5090928;28;20437;-50
2022/05/13 07:58:16;;;;;;;12.97;7.80;;;20.90;61.10;;;;;;5072784;28;20485;-48
2022/05/13 08:00:44;;;;;;;11.80;7.40;;;20.90;62.00;;;;;;5090283;28;20981;-47
2022/05/13 08:03:14;;;;;;;8.83;7.00;;;20.90;62.30;;;;;;5090948;28;20484;-47
2022/05/13 08:05:42;;;;;;;14.67;9.50;;;20.70;63.20;;;;;;5090474;28;20934;-47
2022/05/13 08:08:12;;;;;;;8.80;7.87;;;20.80;62.70;;;;;;5090957;28;20461;-48
2022/05/13 08:10:41;;;;;;;12.40;8.00;;;20.70;62.70;;;;;;5090424;28;20435;-48
2022/05/13 08:13:08;;;;;;;14.20;6.90;;;21.10;63.10;;;;;;5090725;28;20894;-47
2022/05/13 08:15:35;;;;;;;11.53;7.60;;;21.00;62.90;;;;;;5090351;28;20429;-49
2022/05/13 08:18:02;;;;;;;9.17;8.27;;;21.00;63.00;;;;;;5090908;28;20473;-45
2022/05/13 08:20:30;;;;;;;9.93;7.13;;;21.00;63.30;;;;;;5090664;28;20430;-47
2022/05/13 08:22:58;;;;;;;12.43;7.70;;;20.90;63.90;;;;;;5073002;28;20497;-47
2022/05/13 08:25:25;;;;;;;8.57;7.50;;;21.00;64.40;;;;;;5091053;28;20438;-46
2022/05/13 08:27:52;;;;;;;8.50;7.60;;;20.80;64.60;;;;;;5091299;28;20540;-46
2022/05/13 08:30:20;;;;;;;11.13;8.20;;;20.90;64.90;;;;;;5090232;28;20741;-47
2022/05/13 08:32:47;;;;;;;13.70;9.73;;;20.70;65.00;;;;;;5090578;28;20502;-46
2022/05/13 08:35:15;;;;;;;13.40;8.90;;;20.50;65.30;;;;;;5090404;28;20437;-47
2022/05/13 08:37:46;;;;;;;12.00;8.00;;;20.20;65.90;;;;;;5088719;28;20472;-47
2022/05/13 08:40:18;;;;;;;9.07;7.40;;;20.20;66.60;;;;;;5090010;28;20443;-45
2022/05/13 08:42:46;;;;;;;9.37;8.47;;;20.20;67.10;;;;;;5090927;28;20800;-47
2022/05/13 08:45:16;;;;;;;13.83;8.53;;;20.20;67.00;;;;;;5094084;28;20429;-49
2022/05/13 08:47:51;;;;;;;12.30;8.67;;;19.80;67.60;;;;;;5094250;28;20472;-47
2022/05/13 08:50:22;;;;;;;13.10;9.77;;;19.70;67.50;;;;;;5094105;28;20799;-50
2022/05/13 08:53:08;;;;;;;11.83;7.83;;;19.70;68.10;;;;;;5076087;28;20587;-51
2022/05/13 08:55:38;;;;;;;14.60;9.03;;;19.80;68.70;;;;;;5094237;28;20450;-46
2022/05/13 08:58:08;;;;;;;9.97;8.90;;;19.60;69.60;;;;;;5093953;28;20940;-46
2022/05/13 09:00:39;;;;;;;9.93;8.40;;;19.60;70.10;;;;;;5094055;28;20454;-47
2022/05/13 09:03:14;;;;;;;8.90;8.07;;;19.70;70.30;;;;;;5093798;28;20571;-47
2022/05/13 09:05:44;;;;;;;9.27;7.90;;;19.80;69.80;;;;;;5076355;28;20436;-45
2022/05/13 09:08:12;;;;;;;13.70;7.77;;;20.00;66.80;;;;;;5094406;28;20474;-47
2022/05/13 09:10:50;;;;;;;12.40;8.23;;;20.30;67.20;;;;;;5094197;28;20790;-47
2022/05/13 09:13:23;;;;;;;9.17;8.23;;;20.20;66.60;;;;;;5094685;28;20447;-48
2022/05/13 09:15:55;;;;;;;14.03;7.80;;;20.60;66.60;;;;;;5094942;28;20432;-48
2022/05/13 09:18:26;;;;;;;7.30;6.60;;;20.90;65.70;;;;;;5094254;28;20455;-52
2022/05/13 09:20:56;;;;;;;10.77;7.00;;;21.00;65.20;;;;;;5093425;28;20880;-49
2022/05/13 09:23:26;;;;;;;13.23;6.37;;;21.30;63.80;;;;;;5075078;28;20537;-47
2022/05/13 09:26:07;;;;;;;12.63;5.73;;;21.40;62.40;;;;;;5094260;28;20838;-46
2022/05/13 09:28:36;;;;;;;8.90;5.83;;;21.50;61.20;;;;;;5093401;28;20475;-47
2022/05/13 09:31:08;;;;;;;10.10;5.13;;;;;;;;;;5093928;28;20427;-49
2022/05/13 09:33:37;;;;;;;8.57;5.10;;;21.90;61.00;;;;;;5093328;28;20431;-50
2022/05/13 09:36:07;;;;;;;10.30;5.00;;;21.60;59.60;;;;;;5093572;28;20466;-48
2022/05/13 09:38:43;;;;;;;5.80;4.00;;;21.70;58.60;;;;;;5093102;28;20467;-46
2022/05/13 09:41:11;;;;;;;8.43;4.10;;;21.80;59.00;;;;;;5093166;28;20931;-48
2022/05/13 09:43:41;;;;;;;8.93;5.20;;;21.60;59.10;;;;;;5093377;28;20637;-44
2022/05/13 09:46:10;;;;;;;5.93;4.20;;;21.60;59.20;;;;;;5093067;28;20441;-47
2022/05/13 09:48:39;;;;;;;10.13;4.63;;;21.50;57.50;;;;;;5092498;28;20550;-48
2022/05/13 09:51:36;;;;;;;10.33;4.40;;;21.80;58.60;;;;;;5092881;28;20554;-47
2022/05/13 09:54:08;;;;;;;8.47;4.43;;;22.00;58.60;;;;;;5045986;28;20935;-47
2022/05/13 09:56:37;;;;;;;6.20;3.53;;;21.80;58.30;;;;;;5093049;28;20436;-48
2022/05/13 09:59:06;;;;;;;9.07;3.80;;;21.80;57.90;;;;;;5093102;28;20905;-47
2022/05/13 10:01:33;;;;;;;10.73;4.40;;;22.00;58.40;;;;;;5092941;28;20444;-48
2022/05/13 10:04:08;;;;;;;8.90;4.10;;;22.10;58.00;;;;;;5074263;28;20528;-47
2022/05/13 10:06:36;;;;;;;8.83;3.70;;;21.70;57.70;;;;;;5092840;28;20535;-46
2022/05/13 10:14:44;;;;;;;8.23;4.00;;;22.00;57.80;;;;;;5092543;28;20455;-48
2022/05/13 10:17:15;;;;;;;10.43;4.73;;;21.60;57.70;;;;;;5091994;28;20455;-46
2022/05/13 10:19:48;;;;;;;7.80;4.10;;;21.50;58.20;;;;;;5092343;28;20819;-47
2022/05/13 10:22:23;;;;;;;10.80;4.60;;;21.60;58.60;;;;;;5091576;28;20435;-45
2022/05/13 10:24:57;;;;;;;6.90;3.60;;;21.70;58.10;;;;;;5092109;28;20945;-48
2022/05/13 10:27:28;;;;;;;5.57;4.20;;;;;;;;;;5096890;22;20575;-51
2022/05/13 10:29:59;;;;;;;7.20;4.33;;;21.80;58.20;;;;;;5009188;28;20455;-50
2022/05/13 10:32:29;;;;;;;10.20;4.43;;;;;;;;;;5010382;28;20467;-49
2022/05/13 10:35:00;;;;;;;7.43;4.03;;;22.00;57.90;;;;;;5010207;28;20455;-50
2022/05/13 10:37:35;;;;;;;7.13;4.00;;;21.40;57.90;;;;;;5008897;28;20437;-49
2022/05/13 10:40:08;;;;;;;9.17;3.60;;;21.40;57.90;;;;;;4990319;28;20465;-49
2022/05/13 10:42:38;;;;;;;5.80;3.63;;;21.30;58.20;;;;;;4990132;28;20473;-50
2022/05/13 10:45:09;;;;;;;6.90;4.57;;;21.40;58.60;;;;;;4990562;28;20426;-51
2022/05/13 10:47:42;;;;;;;13.03;4.33;;;20.70;59.20;;;;;;4990141;28;20947;-50
2022/05/13 10:50:16;;;;;;;10.93;5.30;;;21.20;59.70;;;;;;4990252;28;20480;-50
2022/05/13 10:52:53;;;;;;;11.90;4.63;;;20.90;59.90;;;;;;4990320;28;20431;-50
2022/05/13 10:55:30;;;;;;;6.53;3.87;;;21.20;60.40;;;;;;4990689;28;20924;-49
2022/05/13 10:58:09;;;;;;;6.40;3.80;;;21.10;59.90;;;;;;4988768;28;20507;-50
2022/05/13 11:00:43;;;;;;;6.00;3.50;;;21.30;60.00;;;;;;4990115;28;20433;-50
2022/05/13 11:03:21;;;;;;;9.73;4.20;;;;;;;;;;4989928;28;20556;-49
2022/05/13 11:05:53;;;;;;;8.20;3.70;;;;;;;;;;4988731;28;20482;-50
2022/05/13 11:08:25;;;;;;;10.03;4.57;;;21.40;59.00;;;;;;4988708;28;20484;-50
2022/05/13 11:11:02;;;;;;;6.00;3.67;;;21.30;58.90;;;;;;4990130;28;20440;-49
2022/05/13 11:13:43;;;;;;;5.80;3.47;;;21.40;58.60;;;;;;4989713;28;20436;-50
2022/05/13 11:16:17;;;;;;;5.27;3.37;;;21.40;59.00;;;;;;4989624;28;20990;-49
2022/05/13 11:18:53;;;;;;;6.10;3.20;;;21.50;56.10;;;;;;4989225;28;20967;-51
2022/05/13 11:21:28;;;;;;;8.93;3.40;;;21.60;56.30;;;;;;4989464;28;20520;-50
2022/05/13 11:26:59;;;;;;;6.40;3.13;;;21.70;55.50;;;;;;4989614;28;20429;-50
2022/05/13 11:29:31;;;;;;;6.50;2.77;;;21.90;53.70;;;;;;4989517;28;20861;-49
2022/05/13 11:32:11;;;;;;;11.53;2.63;;;22.20;53.40;;;;;;4989549;28;20455;-49
2022/05/13 11:34:55;;;;;;;7.20;2.20;;;22.20;53.00;;;;;;4989513;28;20777;-49
2022/05/13 11:37:22;;;;;;;5.67;2.73;;;22.10;53.10;;;;;;4989094;28;20436;-53
2022/05/13 11:40:05;;;;;;;7.70;2.90;;;21.70;53.20;;;;;;4989374;28;20445;-48
2022/05/13 11:45:58;;;;;;;11.20;3.10;;;21.60;53.10;;;;;;4989547;28;20449;-50
2022/05/13 11:48:29;;;;;;;8.23;4.47;;;21.90;53.00;;;;;;4988868;28;20809;-49
2022/05/13 11:51:03;;;;;;;5.53;2.67;;;21.60;52.60;;;;;;4989007;28;20439;-49
2022/05/13 11:53:53;;;;;;;8.10;2.93;;;21.90;52.50;;;;;;4988981;28;20459;-50
2022/05/13 11:56:32;;;;;;;7.10;3.50;;;21.50;52.00;;;;;;4988863;28;20443;-49
2022/05/13 11:59:02;;;;;;;4.47;3.60;;;21.70;52.20;;;;;;4988528;28;20552;-50
2022/05/13 12:01:52;;;;;;;6.23;3.47;;;22.00;52.60;;;;;;4988839;28;20441;-49
2022/05/13 12:04:30;;;;;;;8.03;2.80;;;21.80;51.80;;;;;;4988859;28;20500;-49
2022/05/13 12:06:59;;;;;;;10.83;3.70;;;21.80;52.00;;;;;;4989299;28;20424;-50
2022/05/13 12:09:30;;;;;;;8.37;3.43;;;21.60;52.20;;;;;;4988701;28;20483;-50
2022/05/13 12:12:09;;;;;;;4.23;2.13;;;21.70;52.30;;;;;;4988502;28;20435;-50
2022/05/13 12:14:49;;;;;;;17.70;3.40;;;21.70;52.70;;;;;;4987228;28;20471;-50
2022/05/13 12:17:21;;;;;;;10.73;3.47;;;21.50;52.80;;;;;;4988829;28;20436;-49
2022/05/13 12:19:56;;;;;;;6.20;3.03;;;21.60;52.90;;;;;;4988455;28;20439;-50
2022/05/13 12:22:45;;;;;;;8.13;3.60;;;21.80;53.10;;;;;;4987004;28;20803;-50
2022/05/13 12:25:53;;;;;;;7.00;3.03;;;21.70;53.00;;;;;;4988712;28;20433;-50
2022/05/13 12:28:32;;;;;;;5.80;3.00;;;22.10;52.90;;;;;;4988973;28;20495;-51
2022/05/13 12:30:58;;;;;;;6.50;2.73;;;21.80;52.80;;;;;;4988820;28;20428;-50
2022/05/13 12:33:38;;;;;;;9.63;3.30;;;22.40;53.30;;;;;;4988745;28;20445;-51
2022/05/13 12:39:06;;;;;;;5.13;2.83;;;24.20;54.70;;;;;;4987403;28;20471;-51
2022/05/13 12:41:54;;;;;;;6.03;3.00;;;22.30;53.00;;;;;;4988834;28;20440;-51
2022/05/13 12:44:34;;;;;;;11.30;3.17;;;22.10;52.80;;;;;;4969143;28;20477;-50
2022/05/13 12:47:23;;;;;;;6.20;2.80;;;22.20;52.70;;;;;;4983034;28;20443;-49
2022/05/13 12:50:19;;;;;;;8.00;3.20;;;22.00;52.40;;;;;;4988451;28;20445;-52
2022/05/13 12:52:45;;;;;;;16.03;3.10;;;22.40;52.50;;;;;;4987831;28;20509;-52
2022/05/13 12:55:19;;;;;;;6.13;3.00;;;22.20;52.50;;;;;;4988396;28;20438;-50
2022/05/13 12:57:49;;;;;;;7.20;2.90;;;22.00;51.80;;;;;;4988220;28;20544;-51
2022/05/13 13:00:20;;;;;;;6.10;3.00;;;21.70;51.40;;;;;;4988310;28;20439;-51
2022/05/13 13:02:51;;;;;;;8.50;3.17;;;21.50;50.80;;;;;;4988568;28;20436;-51
2022/05/13 13:05:22;;;;;;;7.63;3.20;;;21.40;51.00;;;;;;4988595;28;20422;-52
2022/05/13 13:07:53;;;;;;;12.23;3.20;;;21.20;51.20;;;;;;4988462;28;20461;-51
2022/05/13 13:10:22;;;;;;;7.43;3.33;;;21.40;51.80;;;;;;4987886;28;20437;-51
2022/05/13 13:12:59;;;;;;;8.53;3.00;;;21.50;52.00;;;;;;4988099;28;20452;-51
2022/05/13 13:15:31;;;;;;;6.07;2.80;;;21.40;52.00;;;;;;4988106;28;20440;-52
2022/05/13 13:18:00;;;;;;;13.60;3.47;;;20.90;51.90;;;;;;4988205;28;20474;-50
2022/05/13 13:20:29;;;;;;;7.03;2.70;;;21.00;52.30;;;;;;4987658;28;20427;-50
2022/05/13 13:23:00;;;;;;;10.70;3.37;;;20.90;52.70;;;;;;4988088;28;20432;-51
2022/05/13 13:25:30;;;;;;;6.10;2.40;;;20.70;53.30;;;;;;4988025;28;20530;-50
2022/05/13 13:28:01;;;;;;;7.83;2.80;;;20.70;53.70;;;;;;4987882;28;20971;-51
2022/05/13 13:30:29;;;;;;;6.97;3.33;;;21.00;54.30;;;;;;4990778;28;20447;-51
2022/05/13 13:32:56;;;;;;;6.70;3.50;;;20.20;53.60;;;;;;4991425;28;20452;-51